VTSS/HDY METAR and TAF weather

Enter ICAO airport designator
Station Type Date Time Source
VTSS METAR 2019/06/27 08:00 UTC NOAA

VTSS 270800Z 27009KT 9999 -TSRA FEW018CB SCT020 BKN100 27/24 Q1007 NOSIG


Station Type Date Time Source
VTSS Decoded METAR 2019/06/27 08:00 UTC NOAA

Hat Yai, Thailand (VTSS) 06-55N 100-26E 35M
Jun 27, 2019 - 04:00 AM EDT / 2019.06.27 0800 UTC
Wind: from the W (270 degrees) at 10 MPH (9 KT):0
Visibility: greater than 7 mile(s):0
Sky conditions: mostly cloudy
Weather: light rain with thunder; Cumulonimbus clouds observed
Temperature: 80 F (27 C)
Dew Point: 75 F (24 C)
Relative Humidity: 83%
Pressure (altimeter): 29.74 in. Hg (1007 hPa)
ob: VTSS 270800Z 27009KT 9999 -TSRA FEW018CB SCT020 BKN100 27/24 Q1007 NOSIG
cycle: 8

Station Type Date Time Source
VTSS TAF 2019/06/27 06:36 UTC NOAA

TAF VTSS 270500Z 2706/2806 22008KT 9999 FEW020 BKN100

Example: see airport list